sensor_id;sensor_type;location;lat;lon;timestamp;pressure;altitude;pressure_sealevel;temperature
67515;BMP280;60646;55.802;37.032;2022-12-18T00:01:17;99198.28;;;1.55
67515;BMP280;60646;55.802;37.032;2022-12-18T00:03:44;99151.59;;;1.33
67515;BMP280;60646;55.802;37.032;2022-12-18T00:06:10;99170.94;;;1.40
67515;BMP280;60646;55.802;37.032;2022-12-18T00:08:41;99178.94;;;1.49
67515;BMP280;60646;55.802;37.032;2022-12-18T00:11:09;99160.44;;;1.40
67515;BMP280;60646;55.802;37.032;2022-12-18T00:13:36;99155.69;;;1.34
67515;BMP280;60646;55.802;37.032;2022-12-18T00:16:08;99158.72;;;1.46
67515;BMP280;60646;55.802;37.032;2022-12-18T00:18:35;99193.41;;;1.66
67515;BMP280;60646;55.802;37.032;2022-12-18T00:21:04;99152.84;;;1.42
67515;BMP280;60646;55.802;37.032;2022-12-18T00:23:33;99164.63;;;1.50
67515;BMP280;60646;55.802;37.032;2022-12-18T00:26:00;99199.28;;;1.70
67515;BMP280;60646;55.802;37.032;2022-12-18T00:28:28;99179.31;;;1.60
67515;BMP280;60646;55.802;37.032;2022-12-18T00:31:11;99173.44;;;1.56
67515;BMP280;60646;55.802;37.032;2022-12-18T00:33:38;99087.00;;;0.98
67515;BMP280;60646;55.802;37.032;2022-12-18T00:36:06;99135.09;;;1.33
67515;BMP280;60646;55.802;37.032;2022-12-18T00:38:33;99154.19;;;1.46
67515;BMP280;60646;55.802;37.032;2022-12-18T00:40:59;99157.88;;;1.49
67515;BMP280;60646;55.802;37.032;2022-12-18T00:43:25;99157.03;;;1.52
67515;BMP280;60646;55.802;37.032;2022-12-18T00:45:52;99132.31;;;1.36
67515;BMP280;60646;55.802;37.032;2022-12-18T00:48:18;99148.84;;;1.50
67515;BMP280;60646;55.802;37.032;2022-12-18T00:50:44;99139.47;;;1.49
67515;BMP280;60646;55.802;37.032;2022-12-18T00:53:10;99121.88;;;1.46
67515;BMP280;60646;55.802;37.032;2022-12-18T00:55:38;99155.09;;;1.65
67515;BMP280;60646;55.802;37.032;2022-12-18T00:58:04;99115.38;;;1.37
67515;BMP280;60646;55.802;37.032;2022-12-18T01:00:30;99138.31;;;1.50
67515;BMP280;60646;55.802;37.032;2022-12-18T01:02:56;99148.84;;;1.50
67515;BMP280;60646;55.802;37.032;2022-12-18T01:05:21;99154.47;;;1.61
67515;BMP280;60646;55.802;37.032;2022-12-18T01:07:47;99130.09;;;1.48
67515;BMP280;60646;55.802;37.032;2022-12-18T01:10:13;99142.47;;;1.60
67515;BMP280;60646;55.802;37.032;2022-12-18T01:12:39;99153.00;;;1.60
67515;BMP280;60646;55.802;37.032;2022-12-18T01:15:06;99153.75;;;1.60
67515;BMP280;60646;55.802;37.032;2022-12-18T01:17:33;99168.16;;;1.56
67515;BMP280;60646;55.802;37.032;2022-12-18T01:20:00;99112.09;;;1.24
67515;BMP280;60646;55.802;37.032;2022-12-18T01:22:26;99118.75;;;1.38
67515;BMP280;60646;55.802;37.032;2022-12-18T01:24:51;99119.63;;;1.35
67515;BMP280;60646;55.802;37.032;2022-12-18T01:27:21;99130.84;;;1.48
67515;BMP280;60646;55.802;37.032;2022-12-18T01:29:47;99098.63;;;1.22
67515;BMP280;60646;55.802;37.032;2022-12-18T01:32:12;99106.81;;;1.24
67515;BMP280;60646;55.802;37.032;2022-12-18T01:34:38;99119.31;;;1.33
67515;BMP280;60646;55.802;37.032;2022-12-18T01:37:04;99140.09;;;1.53
67515;BMP280;60646;55.802;37.032;2022-12-18T01:39:31;99121.81;;;1.36
67515;BMP280;60646;55.802;37.032;2022-12-18T01:42:19;99120.66;;;1.37
67515;BMP280;60646;55.802;37.032;2022-12-18T01:49:47;99123.34;;;1.47
67515;BMP280;60646;55.802;37.032;2022-12-18T01:52:14;99117.13;;;1.31
67515;BMP280;60646;55.802;37.032;2022-12-18T01:54:40;99122.97;;;1.35
67515;BMP280;60646;55.802;37.032;2022-12-18T01:57:06;99122.38;;;1.31
67515;BMP280;60646;55.802;37.032;2022-12-18T01:59:33;99139.16;;;1.47
67515;BMP280;60646;55.802;37.032;2022-12-18T02:01:59;99101.56;;;1.24
67515;BMP280;60646;55.802;37.032;2022-12-18T02:04:27;99117.22;;;1.28
67515;BMP280;60646;55.802;37.032;2022-12-18T02:10:37;99132.66;;;1.38
67515;BMP280;60646;55.802;37.032;2022-12-18T02:17:59;99102.09;;;1.19
67515;BMP280;60646;55.802;37.032;2022-12-18T02:20:33;99100.94;;;1.20
67515;BMP280;60646;55.802;37.032;2022-12-18T02:28:21;99146.13;;;1.41
67515;BMP280;60646;55.802;37.032;2022-12-18T02:30:51;99117.88;;;1.19
67515;BMP280;60646;55.802;37.032;2022-12-18T02:33:20;99120.50;;;1.19
67515;BMP280;60646;55.802;37.032;2022-12-18T02:35:47;99104.34;;;1.08
67515;BMP280;60646;55.802;37.032;2022-12-18T02:38:14;99101.50;;;1.03
67515;BMP280;60646;55.802;37.032;2022-12-18T02:40:44;99147.06;;;1.34
67515;BMP280;60646;55.802;37.032;2022-12-18T02:43:15;99111.50;;;1.08
67515;BMP280;60646;55.802;37.032;2022-12-18T02:45:50;99128.72;;;1.21
67515;BMP280;60646;55.802;37.032;2022-12-18T02:48:22;99136.72;;;1.18
67515;BMP280;60646;55.802;37.032;2022-12-18T02:56:15;99147.81;;;1.34
67515;BMP280;60646;55.802;37.032;2022-12-18T03:01:43;99116.31;;;1.09
67515;BMP280;60646;55.802;37.032;2022-12-18T03:05:22;99121.03;;;1.14
67515;BMP280;60646;55.802;37.032;2022-12-18T03:07:20;99137.84;;;1.29
67515;BMP280;60646;55.802;37.032;2022-12-18T03:09:50;99119.16;;;1.15
67515;BMP280;60646;55.802;37.032;2022-12-18T03:12:21;99115.47;;;1.12
67515;BMP280;60646;55.802;37.032;2022-12-18T03:15:03;99101.09;;;1.04
67515;BMP280;60646;55.802;37.032;2022-12-18T03:17:32;99095.00;;;0.95
67515;BMP280;60646;55.802;37.032;2022-12-18T03:20:03;99123.56;;;1.05
67515;BMP280;60646;55.802;37.032;2022-12-18T03:22:33;99126.63;;;1.16
67515;BMP280;60646;55.802;37.032;2022-12-18T03:25:05;99115.91;;;0.98
67515;BMP280;60646;55.802;37.032;2022-12-18T03:27:33;99153.56;;;1.08
67515;BMP280;60646;55.802;37.032;2022-12-18T03:30:08;99119.50;;;0.79
67515;BMP280;60646;55.802;37.032;2022-12-18T03:35:20;99157.34;;;0.81
67515;BMP280;60646;55.802;37.032;2022-12-18T03:38:06;99105.41;;;0.47
67515;BMP280;60646;55.802;37.032;2022-12-18T03:49:23;99137.13;;;0.40
67515;BMP280;60646;55.802;37.032;2022-12-18T03:52:01;99145.19;;;0.33
67515;BMP280;60646;55.802;37.032;2022-12-18T03:54:30;99134.94;;;0.26
67515;BMP280;60646;55.802;37.032;2022-12-18T03:57:13;99129.44;;;0.21
67515;BMP280;60646;55.802;37.032;2022-12-18T03:59:40;99128.59;;;0.24
67515;BMP280;60646;55.802;37.032;2022-12-18T04:02:08;99148.69;;;0.30
67515;BMP280;60646;55.802;37.032;2022-12-18T04:04:37;99148.13;;;0.23
67515;BMP280;60646;55.802;37.032;2022-12-18T04:07:04;99166.66;;;0.32
67515;BMP280;60646;55.802;37.032;2022-12-18T04:09:34;99156.53;;;0.18
67515;BMP280;60646;55.802;37.032;2022-12-18T04:12:00;99167.69;;;0.22
67515;BMP280;60646;55.802;37.032;2022-12-18T04:14:26;99179.06;;;0.31
67515;BMP280;60646;55.802;37.032;2022-12-18T04:16:55;99181.34;;;0.29
67515;BMP280;60646;55.802;37.032;2022-12-18T04:19:27;99162.50;;;0.18
67515;BMP280;60646;55.802;37.032;2022-12-18T04:21:53;99175.13;;;0.23
67515;BMP280;60646;55.802;37.032;2022-12-18T04:24:19;99185.47;;;0.30
67515;BMP280;60646;55.802;37.032;2022-12-18T04:26:57;99161.69;;;0.21
67515;BMP280;60646;55.802;37.032;2022-12-18T04:29:26;99165.88;;;0.19
67515;BMP280;60646;55.802;37.032;2022-12-18T04:31:52;99171.19;;;0.31
67515;BMP280;60646;55.802;37.032;2022-12-18T04:34:19;99173.16;;;0.27
67515;BMP280;60646;55.802;37.032;2022-12-18T04:36:49;99166.09;;;0.24
67515;BMP280;60646;55.802;37.032;2022-12-18T04:39:15;99176.94;;;0.26
67515;BMP280;60646;55.802;37.032;2022-12-18T04:41:42;99177.25;;;0.28
67515;BMP280;60646;55.802;37.032;2022-12-18T04:44:09;99176.94;;;0.26
67515;BMP280;60646;55.802;37.032;2022-12-18T04:46:34;99194.16;;;0.27
67515;BMP280;60646;55.802;37.032;2022-12-18T04:49:00;99199.94;;;0.22
67515;BMP280;60646;55.802;37.032;2022-12-18T04:51:26;99211.38;;;0.28
67515;BMP280;60646;55.802;37.032;2022-12-18T04:53:52;99181.81;;;0.12
67515;BMP280;60646;55.802;37.032;2022-12-18T04:56:18;99185.84;;;0.16
67515;BMP280;60646;55.802;37.032;2022-12-18T04:58:44;99205.91;;;0.23
67515;BMP280;60646;55.802;37.032;2022-12-18T05:01:11;99197.31;;;0.22
67515;BMP280;60646;55.802;37.032;2022-12-18T05:03:38;99218.44;;;0.31
67515;BMP280;60646;55.802;37.032;2022-12-18T05:06:05;99232.31;;;0.44
67515;BMP280;60646;55.802;37.032;2022-12-18T05:08:31;99204.34;;;0.25
67515;BMP280;60646;55.802;37.032;2022-12-18T05:11:05;99186.81;;;0.22
67515;BMP280;60646;55.802;37.032;2022-12-18T05:13:32;99182.47;;;0.16
67515;BMP280;60646;55.802;37.032;2022-12-18T05:15:58;99211.16;;;0.23
67515;BMP280;60646;55.802;37.032;2022-12-18T05:18:24;99203.22;;;0.10
67515;BMP280;60646;55.802;37.032;2022-12-18T05:20:51;99260.88;;;0.42
67515;BMP280;60646;55.802;37.032;2022-12-18T05:23:18;99248.91;;;0.41
67515;BMP280;60646;55.802;37.032;2022-12-18T05:25:52;99237.34;;;0.26
67515;BMP280;60646;55.802;37.032;2022-12-18T05:28:18;99255.00;;;0.38
67515;BMP280;60646;55.802;37.032;2022-12-18T05:30:51;99271.09;;;0.40
67515;BMP280;60646;55.802;37.032;2022-12-18T05:33:18;99253.91;;;0.23
67515;BMP280;60646;55.802;37.032;2022-12-18T05:35:44;99246.84;;;0.20
67515;BMP280;60646;55.802;37.032;2022-12-18T05:38:15;99245.81;;;0.18
67515;BMP280;60646;55.802;37.032;2022-12-18T05:40:42;99256.22;;;0.21
67515;BMP280;60646;55.802;37.032;2022-12-18T05:43:09;99254.09;;;0.16
67515;BMP280;60646;55.802;37.032;2022-12-18T05:45:38;99281.25;;;0.38
67515;BMP280;60646;55.802;37.032;2022-12-18T05:48:05;99245.88;;;0.14
67515;BMP280;60646;55.802;37.032;2022-12-18T05:50:34;99273.47;;;0.22
67515;BMP280;60646;55.802;37.032;2022-12-18T05:53:02;99255.00;;;0.10
67515;BMP280;60646;55.802;37.032;2022-12-18T05:55:27;99277.53;;;0.23
67515;BMP280;60646;55.802;37.032;2022-12-18T05:58:13;99294.06;;;0.36
67515;BMP280;60646;55.802;37.032;2022-12-18T06:00:41;99297.84;;;0.35
67515;BMP280;60646;55.802;37.032;2022-12-18T06:03:12;99277.22;;;0.21
67515;BMP280;60646;55.802;37.032;2022-12-18T06:05:40;99309.81;;;0.36
67515;BMP280;60646;55.802;37.032;2022-12-18T06:08:06;99299.03;;;0.18
67515;BMP280;60646;55.802;37.032;2022-12-18T06:10:52;99303.63;;;0.14
67515;BMP280;60646;55.802;37.032;2022-12-18T06:13:19;99334.63;;;0.35
67515;BMP280;60646;55.802;37.032;2022-12-18T06:15:45;99297.09;;;0.06
67515;BMP280;60646;55.802;37.032;2022-12-18T06:18:11;99283.66;;;0.04
67515;BMP280;60646;55.802;37.032;2022-12-18T06:20:39;99337.56;;;0.37
67515;BMP280;60646;55.802;37.032;2022-12-18T06:23:07;99314.78;;;0.18
67515;BMP280;60646;55.802;37.032;2022-12-18T06:25:37;99323.66;;;0.24
67515;BMP280;60646;55.802;37.032;2022-12-18T06:28:03;99300.06;;;0.08
67515;BMP280;60646;55.802;37.032;2022-12-18T06:30:29;99326.78;;;0.19
67515;BMP280;60646;55.802;37.032;2022-12-18T06:32:55;99351.94;;;0.33
67515;BMP280;60646;55.802;37.032;2022-12-18T06:35:20;99360.75;;;0.26
67515;BMP280;60646;55.802;37.032;2022-12-18T06:37:46;99341.13;;;0.15
67515;BMP280;60646;55.802;37.032;2022-12-18T06:40:12;99344.50;;;0.15
67515;BMP280;60646;55.802;37.032;2022-12-18T06:42:38;99364.84;;;0.27
67515;BMP280;60646;55.802;37.032;2022-12-18T06:45:04;99351.25;;;0.16
67515;BMP280;60646;55.802;37.032;2022-12-18T06:47:30;99374.69;;;0.23
67515;BMP280;60646;55.802;37.032;2022-12-18T06:49:56;99362.72;;;0.22
67515;BMP280;60646;55.802;37.032;2022-12-18T06:52:21;99376.81;;;0.28
67515;BMP280;60646;55.802;37.032;2022-12-18T06:54:57;99404.84;;;0.47
67515;BMP280;60646;55.802;37.032;2022-12-18T06:57:23;99350.25;;;0.10
67515;BMP280;60646;55.802;37.032;2022-12-18T06:59:50;99379.06;;;0.30
67515;BMP280;60646;55.802;37.032;2022-12-18T07:02:25;99420.13;;;0.53
67515;BMP280;60646;55.802;37.032;2022-12-18T07:04:51;99357.16;;;0.04
67515;BMP280;60646;55.802;37.032;2022-12-18T07:07:20;99380.13;;;0.16
67515;BMP280;60646;55.802;37.032;2022-12-18T07:09:49;99383.75;;;0.22
67515;BMP280;60646;55.802;37.032;2022-12-18T07:12:16;99441.88;;;0.53
67515;BMP280;60646;55.802;37.032;2022-12-18T07:14:42;99413.19;;;0.30
67515;BMP280;60646;55.802;37.032;2022-12-18T07:17:12;99402.19;;;0.19
67515;BMP280;60646;55.802;37.032;2022-12-18T07:19:42;99433.69;;;0.35
67515;BMP280;60646;55.802;37.032;2022-12-18T07:22:08;99421.91;;;0.27
67515;BMP280;60646;55.802;37.032;2022-12-18T07:24:34;99465.78;;;0.59
67515;BMP280;60646;55.802;37.032;2022-12-18T07:27:00;99448.88;;;0.43
67515;BMP280;60646;55.802;37.032;2022-12-18T07:29:27;99426.19;;;0.33
67515;BMP280;60646;55.802;37.032;2022-12-18T07:31:52;99423.75;;;0.42
67515;BMP280;60646;55.802;37.032;2022-12-18T07:34:18;99421.44;;;0.44
67515;BMP280;60646;55.802;37.032;2022-12-18T07:36:44;99409.88;;;0.42
67515;BMP280;60646;55.802;37.032;2022-12-18T07:39:11;99438.03;;;0.58
67515;BMP280;60646;55.802;37.032;2022-12-18T07:41:37;99417.34;;;0.43
67515;BMP280;60646;55.802;37.032;2022-12-18T07:44:12;99423.59;;;0.50
67515;BMP280;60646;55.802;37.032;2022-12-18T07:46:38;99428.84;;;0.50
67515;BMP280;60646;55.802;37.032;2022-12-18T07:49:04;99429.00;;;0.42
67515;BMP280;60646;55.802;37.032;2022-12-18T07:51:30;99467.66;;;0.58
67515;BMP280;60646;55.802;37.032;2022-12-18T07:53:56;99486.78;;;0.75
67515;BMP280;60646;55.802;37.032;2022-12-18T07:56:22;99446.66;;;0.58
67515;BMP280;60646;55.802;37.032;2022-12-18T07:58:48;99471.66;;;0.79
67515;BMP280;60646;55.802;37.032;2022-12-18T08:01:13;99469.03;;;0.79
67515;BMP280;60646;55.802;37.032;2022-12-18T08:03:40;99483.19;;;0.85
67515;BMP280;60646;55.802;37.032;2022-12-18T08:06:08;99486.78;;;0.75
67515;BMP280;60646;55.802;37.032;2022-12-18T08:08:34;99491.56;;;0.80
67515;BMP280;60646;55.802;37.032;2022-12-18T08:11:00;99469.56;;;0.58
67515;BMP280;60646;55.802;37.032;2022-12-18T08:13:27;99508.13;;;0.93
67515;BMP280;60646;55.802;37.032;2022-12-18T08:16:01;99498.13;;;0.72
67515;BMP280;60646;55.802;37.032;2022-12-18T08:18:28;99532.84;;;0.96
67515;BMP280;60646;55.802;37.032;2022-12-18T08:21:21;99512.25;;;0.78
67515;BMP280;60646;55.802;37.032;2022-12-18T08:23:50;99535.81;;;0.98
67515;BMP280;60646;55.802;37.032;2022-12-18T08:26:54;99515.53;;;0.82
67515;BMP280;60646;55.802;37.032;2022-12-18T08:29:27;99535.06;;;0.97
67515;BMP280;60646;55.802;37.032;2022-12-18T08:31:53;99534.19;;;1.04
67515;BMP280;60646;55.802;37.032;2022-12-18T08:34:19;99529.16;;;0.93
67515;BMP280;60646;55.802;37.032;2022-12-18T08:36:45;99532.03;;;0.99
67515;BMP280;60646;55.802;37.032;2022-12-18T08:39:11;99536.47;;;1.02
67515;BMP280;60646;55.802;37.032;2022-12-18T08:41:36;99544.50;;;1.11
67515;BMP280;60646;55.802;37.032;2022-12-18T08:44:02;99533.75;;;1.05
67515;BMP280;60646;55.802;37.032;2022-12-18T08:46:47;99541.47;;;1.12
67515;BMP280;60646;55.802;37.032;2022-12-18T08:49:12;99555.19;;;1.20
67515;BMP280;60646;55.802;37.032;2022-12-18T08:51:39;99551.81;;;1.19
67515;BMP280;60646;55.802;37.032;2022-12-18T08:54:05;99530.38;;;1.05
67515;BMP280;60646;55.802;37.032;2022-12-18T08:56:33;99573.19;;;1.21
67515;BMP280;60646;55.802;37.032;2022-12-18T08:58:59;99557.50;;;1.18
67515;BMP280;60646;55.802;37.032;2022-12-18T09:01:25;99528.97;;;1.00
67515;BMP280;60646;55.802;37.032;2022-12-18T09:03:51;99571.31;;;1.22
67515;BMP280;60646;55.802;37.032;2022-12-18T09:06:21;99547.16;;;1.11
67515;BMP280;60646;55.802;37.032;2022-12-18T09:09:07;99560.06;;;1.21
67515;BMP280;60646;55.802;37.032;2022-12-18T09:11:32;99548.38;;;1.06
67515;BMP280;60646;55.802;37.032;2022-12-18T09:14:02;99576.88;;;1.24
67515;BMP280;60646;55.802;37.032;2022-12-18T09:16:29;99585.53;;;1.24
67515;BMP280;60646;55.802;37.032;2022-12-18T09:18:55;99578.88;;;1.20
67515;BMP280;60646;55.802;37.032;2022-12-18T09:21:43;99574.53;;;1.13
67515;BMP280;60646;55.802;37.032;2022-12-18T09:24:12;99581.25;;;1.14
67515;BMP280;60646;55.802;37.032;2022-12-18T09:26:38;99578.69;;;1.11
67515;BMP280;60646;55.802;37.032;2022-12-18T09:29:04;99586.19;;;1.12
67515;BMP280;60646;55.802;37.032;2022-12-18T09:31:33;99626.59;;;1.34
67515;BMP280;60646;55.802;37.032;2022-12-18T09:34:01;99606.75;;;1.17
67515;BMP280;60646;55.802;37.032;2022-12-18T09:36:27;99612.00;;;1.17
67515;BMP280;60646;55.802;37.032;2022-12-18T09:39:11;99634.91;;;1.33
67515;BMP280;60646;55.802;37.032;2022-12-18T09:44:25;99642.28;;;1.38
67515;BMP280;60646;55.802;37.032;2022-12-18T09:47:17;99641.97;;;1.36
67515;BMP280;60646;55.802;37.032;2022-12-18T09:49:50;99654.38;;;1.35
67515;BMP280;60646;55.802;37.032;2022-12-18T09:52:23;99630.63;;;1.23
67515;BMP280;60646;55.802;37.032;2022-12-18T09:58:06;99658.91;;;1.35
67515;BMP280;60646;55.802;37.032;2022-12-18T10:00:33;99625.63;;;1.12
67515;BMP280;60646;55.802;37.032;2022-12-18T10:03:02;99648.00;;;1.20
67515;BMP280;60646;55.802;37.032;2022-12-18T10:08:17;99673.13;;;1.37
67515;BMP280;60646;55.802;37.032;2022-12-18T10:10:52;99677.63;;;1.37
67515;BMP280;60646;55.802;37.032;2022-12-18T10:13:42;99671.63;;;1.36
67515;BMP280;60646;55.802;37.032;2022-12-18T10:16:15;99682.16;;;1.36
67515;BMP280;60646;55.802;37.032;2022-12-18T10:21:36;99686.28;;;1.37
67515;BMP280;60646;55.802;37.032;2022-12-18T10:24:17;99677.72;;;1.33
67515;BMP280;60646;55.802;37.032;2022-12-18T10:26:47;99692.69;;;1.36
67515;BMP280;60646;55.802;37.032;2022-12-18T10:29:14;99677.72;;;1.33
67515;BMP280;60646;55.802;37.032;2022-12-18T10:31:40;99652.59;;;1.16
67515;BMP280;60646;55.802;37.032;2022-12-18T10:34:10;99666.41;;;1.20
67515;BMP280;60646;55.802;37.032;2022-12-18T10:36:37;99669.59;;;1.28
67515;BMP280;60646;55.802;37.032;2022-12-18T10:39:23;99681.53;;;1.32
67515;BMP280;60646;55.802;37.032;2022-12-18T10:41:50;99697.13;;;1.40
67515;BMP280;60646;55.802;37.032;2022-12-18T10:44:23;99675.78;;;1.21
67515;BMP280;60646;55.802;37.032;2022-12-18T10:47:18;99698.63;;;1.41
67515;BMP280;60646;55.802;37.032;2022-12-18T10:49:52;99715.22;;;1.37
67515;BMP280;60646;55.802;37.032;2022-12-18T10:52:22;99698.97;;;1.26
67515;BMP280;60646;55.802;37.032;2022-12-18T10:54:54;99702.09;;;1.21
67515;BMP280;60646;55.802;37.032;2022-12-18T10:57:54;99711.63;;;1.31
67515;BMP280;60646;55.802;37.032;2022-12-18T11:00:30;99727.97;;;1.39
67515;BMP280;60646;55.802;37.032;2022-12-18T11:02:56;99721.00;;;1.32
67515;BMP280;60646;55.802;37.032;2022-12-18T11:05:32;99727.88;;;1.43
67515;BMP280;60646;55.802;37.032;2022-12-18T11:08:01;99708.59;;;1.33
67515;BMP280;60646;55.802;37.032;2022-12-18T11:10:31;99722.78;;;1.35
67515;BMP280;60646;55.802;37.032;2022-12-18T11:13:18;99708.59;;;1.33
67515;BMP280;60646;55.802;37.032;2022-12-18T11:15:46;99706.50;;;1.24
67515;BMP280;60646;55.802;37.032;2022-12-18T11:18:19;99712.44;;;1.28
67515;BMP280;60646;55.802;37.032;2022-12-18T11:20:56;99738.00;;;1.44
67515;BMP280;60646;55.802;37.032;2022-12-18T11:23:23;99731.19;;;1.30
67515;BMP280;60646;55.802;37.032;2022-12-18T11:25:55;99716.97;;;1.28
67515;BMP280;60646;55.802;37.032;2022-12-18T11:31:33;99736.25;;;1.37
67515;BMP280;60646;55.802;37.032;2022-12-18T11:34:04;99760.28;;;1.40
67515;BMP280;60646;55.802;37.032;2022-12-18T11:36:50;99748.63;;;1.41
67515;BMP280;60646;55.802;37.032;2022-12-18T11:42:05;99768.50;;;1.42
67515;BMP280;60646;55.802;37.032;2022-12-18T11:44:48;99771.56;;;1.40
67515;BMP280;60646;55.802;37.032;2022-12-18T11:47:35;99764.25;;;1.31
67515;BMP280;60646;55.802;37.032;2022-12-18T11:50:05;99785.13;;;1.38
67515;BMP280;60646;55.802;37.032;2022-12-18T11:52:38;99790.28;;;1.42
67515;BMP280;60646;55.802;37.032;2022-12-18T11:55:37;99794.50;;;1.40
67515;BMP280;60646;55.802;37.032;2022-12-18T12:00:25;99775.00;;;1.21
67515;BMP280;60646;55.802;37.032;2022-12-18T12:03:20;99797.59;;;1.34
67515;BMP280;60646;55.802;37.032;2022-12-18T12:11:39;99816.03;;;1.34
67515;BMP280;60646;55.802;37.032;2022-12-18T12:17:12;99838.28;;;1.50
67515;BMP280;60646;55.802;37.032;2022-12-18T12:22:35;99847.31;;;1.49
67515;BMP280;60646;55.802;37.032;2022-12-18T12:38:54;99881.09;;;1.50
67515;BMP280;60646;55.802;37.032;2022-12-18T12:41:24;99873.63;;;1.49
67515;BMP280;60646;55.802;37.032;2022-12-18T12:44:14;99881.53;;;1.49
67515;BMP280;60646;55.802;37.032;2022-12-18T12:46:41;99859.75;;;1.28
67515;BMP280;60646;55.802;37.032;2022-12-18T12:49:14;99888.75;;;1.45
67515;BMP280;60646;55.802;37.032;2022-12-18T12:51:49;99901.44;;;1.50
67515;BMP280;60646;55.802;37.032;2022-12-18T12:54:23;99910.47;;;1.49
67515;BMP280;60646;55.802;37.032;2022-12-18T13:00:00;99916.31;;;1.56
67515;BMP280;60646;55.802;37.032;2022-12-18T13:02:44;99936.63;;;1.56
67515;BMP280;60646;55.802;37.032;2022-12-18T13:08:10;99926.38;;;1.42
67515;BMP280;60646;55.802;37.032;2022-12-18T13:10:39;99957.69;;;1.56
67515;BMP280;60646;55.802;37.032;2022-12-18T13:13:12;99950.41;;;1.44
67515;BMP280;60646;55.802;37.032;2022-12-18T13:15:44;99937.34;;;1.40
67515;BMP280;60646;55.802;37.032;2022-12-18T13:18:18;99970.84;;;1.56
67515;BMP280;60646;55.802;37.032;2022-12-18T13:29:41;100000.63;;;1.53
67515;BMP280;60646;55.802;37.032;2022-12-18T13:32:20;99970.94;;;1.32
67515;BMP280;60646;55.802;37.032;2022-12-18T13:34:46;99999.13;;;1.52
67515;BMP280;60646;55.802;37.032;2022-12-18T13:39:56;99977.75;;;1.30
67515;BMP280;60646;55.802;37.032;2022-12-18T13:42:37;99997.09;;;1.40
67515;BMP280;60646;55.802;37.032;2022-12-18T13:45:44;100012.75;;;1.47
67515;BMP280;60646;55.802;37.032;2022-12-18T13:48:22;100027.06;;;1.46
67515;BMP280;60646;55.802;37.032;2022-12-18T13:50:53;100014.59;;;1.30
67515;BMP280;60646;55.802;37.032;2022-12-18T13:53:30;100036.91;;;1.42
67515;BMP280;60646;55.802;37.032;2022-12-18T13:55:58;100013.97;;;1.22
67515;BMP280;60646;55.802;37.032;2022-12-18T13:58:24;100033.41;;;1.28
67515;BMP280;60646;55.802;37.032;2022-12-18T14:00:50;100032.72;;;1.24
67515;BMP280;60646;55.802;37.032;2022-12-18T14:03:24;100038.09;;;1.17
67515;BMP280;60646;55.802;37.032;2022-12-18T14:05:54;100044.44;;;1.20
67515;BMP280;60646;55.802;37.032;2022-12-18T14:08:21;100050.81;;;1.22
67515;BMP280;60646;55.802;37.032;2022-12-18T14:10:48;100070.91;;;1.32
67515;BMP280;60646;55.802;37.032;2022-12-18T14:13:26;100056.84;;;1.19
67515;BMP280;60646;55.802;37.032;2022-12-18T14:15:55;100077.34;;;1.31
67515;BMP280;60646;55.802;37.032;2022-12-18T14:21:03;100088.66;;;1.28
67515;BMP280;60646;55.802;37.032;2022-12-18T14:23:38;100114.63;;;1.26
67515;BMP280;60646;55.802;37.032;2022-12-18T14:26:30;100109.75;;;1.25
67515;BMP280;60646;55.802;37.032;2022-12-18T14:29:23;100107.53;;;1.23
67515;BMP280;60646;55.802;37.032;2022-12-18T14:32:04;100106.38;;;1.24
67515;BMP280;60646;55.802;37.032;2022-12-18T14:34:32;100096.97;;;1.00
67515;BMP280;60646;55.802;37.032;2022-12-18T14:36:59;100114.25;;;1.01
67515;BMP280;60646;55.802;37.032;2022-12-18T14:39:29;100121.06;;;0.99
67515;BMP280;60646;55.802;37.032;2022-12-18T14:41:58;100144.91;;;1.11
67515;BMP280;60646;55.802;37.032;2022-12-18T14:44:24;100131.63;;;0.95
67515;BMP280;60646;55.802;37.032;2022-12-18T14:46:50;100113.75;;;0.83
67515;BMP280;60646;55.802;37.032;2022-12-18T14:49:33;100130.47;;;0.96
67515;BMP280;60646;55.802;37.032;2022-12-18T14:52:13;100146.94;;;1.00
67515;BMP280;60646;55.802;37.032;2022-12-18T14:54:46;100115.34;;;0.77
67515;BMP280;60646;55.802;37.032;2022-12-18T14:57:21;100151.19;;;0.94
67515;BMP280;60646;55.802;37.032;2022-12-18T14:59:48;100127.34;;;0.78
67515;BMP280;60646;55.802;37.032;2022-12-18T15:02:26;100158.13;;;0.81
67515;BMP280;60646;55.802;37.032;2022-12-18T15:05:02;100182.09;;;0.83
67515;BMP280;60646;55.802;37.032;2022-12-18T15:08:24;100184.47;;;0.74
67515;BMP280;60646;55.802;37.032;2022-12-18T15:10:32;100182.16;;;0.79
67515;BMP280;60646;55.802;37.032;2022-12-18T15:13:24;100172.59;;;0.62
67515;BMP280;60646;55.802;37.032;2022-12-18T15:16:16;100111.66;;;0.10
67515;BMP280;60646;55.802;37.032;2022-12-18T15:26:07;100210.31;;;0.49
67515;BMP280;60646;55.802;37.032;2022-12-18T15:28:54;100121.31;;;-0.17
67515;BMP280;60646;55.802;37.032;2022-12-18T15:31:35;100207.78;;;0.38
67515;BMP280;60646;55.802;37.032;2022-12-18T15:34:24;100169.53;;;0.03
67515;BMP280;60646;55.802;37.032;2022-12-18T15:37:21;100212.13;;;0.21
67515;BMP280;60646;55.802;37.032;2022-12-18T15:39:48;100225.59;;;0.23
67515;BMP280;60646;55.802;37.032;2022-12-18T15:42:14;100214.09;;;0.10
67515;BMP280;60646;55.802;37.032;2022-12-18T15:44:58;100202.94;;;-0.01
67515;BMP280;60646;55.802;37.032;2022-12-18T15:47:27;100229.06;;;0.13
67515;BMP280;60646;55.802;37.032;2022-12-18T15:49:56;100207.81;;;-0.03
67515;BMP280;60646;55.802;37.032;2022-12-18T15:52:22;100210.88;;;-0.08
67515;BMP280;60646;55.802;37.032;2022-12-18T15:54:51;100232.91;;;0.02
67515;BMP280;60646;55.802;37.032;2022-12-18T15:57:36;100216.56;;;-0.17
67515;BMP280;60646;55.802;37.032;2022-12-18T16:00:02;100258.00;;;0.06
67515;BMP280;60646;55.802;37.032;2022-12-18T16:02:31;100245.28;;;0.01
67515;BMP280;60646;55.802;37.032;2022-12-18T16:05:16;100251.75;;;-0.07
67515;BMP280;60646;55.802;37.032;2022-12-18T16:08:31;100261.47;;;-0.04
67515;BMP280;60646;55.802;37.032;2022-12-18T16:10:59;100177.19;;;-0.72
67515;BMP280;60646;55.802;37.032;2022-12-18T16:13:29;100256.75;;;-0.23
67515;BMP280;60646;55.802;37.032;2022-12-18T16:16:20;100276.16;;;-0.10
67515;BMP280;60646;55.802;37.032;2022-12-18T16:18:50;100179.91;;;-0.86
67515;BMP280;60646;55.802;37.032;2022-12-18T16:21:27;100241.16;;;-0.52